KSLB/SLB METAR and TAF weather

Enter ICAO airport designator
Station Type Date Time Source
KSLB METAR 2019/06/18 15:35 UTC NOAA

KSLB 181535Z AUTO 09007KT 10SM CLR 16/16 A2998 RMK AO2


Station Type Date Time Source
KSLB Decoded METAR 2019/06/18 15:35 UTC NOAA

Storm Lake, IA, United States (KSLB) 42-36N 095-14W
Jun 18, 2019 - 11:35 AM EDT / 2019.06.18 1535 UTC
Wind: from the E (090 degrees) at 8 MPH (7 KT):0
Visibility: 10 mile(s):0
Sky conditions: clear
Temperature: 60 F (16 C)
Dew Point: 60 F (16 C)
Relative Humidity: 100%
Pressure (altimeter): 29.98 in. Hg (1015 hPa)
ob: KSLB 181535Z AUTO 09007KT 10SM CLR 16/16 A2998 RMK AO2
cycle: 15

Station Type Date Time Source
KSLB TAF UTC NOAA

Error!

Example: see airport list